»·PEaware :: AAL640 KPHX-KLAX

AAL640 :: KPHX-KLAX

FLIGHT INFORMATION

Flight Status: Arrived
Operator:
American Airlines
More flights by this operator :: More flights under this callsign
Pilot: Alex S. (7186)
Aircraft: BOEING 737-800
(B738)
More flights by this aircraft type
Origin: KPHX Phoenix Sky Harbor Intl
United States
Destination: KLAX Los Angeles Intl
United States
More flights between these airports :: More routes between these airports
Route: +IZZZO6 MESSI ESTWD HLYWD1
File this flight plan on PilotEdge
Remarks: PBN / A1B1C1D1S1S2 DOF / 180513 REG / N908NN EET / KZLA0019 OPR / AAL PER / C RMK / TCAS SIMBRIEF
Altitude:
(Current/Filed)
28,000ft
Speed:
(Current/Filed)
445kts
Departed: 12-May-18 06:12 PM
Arrived: 12-May-18 07:12 PM
Distance/Time
Traveled:
321nm/1:00
Distance/Time
To Go:
Arrived

Flight Plot

Page will automatically refresh every two minutes.

Flight plan parsing failed; only flown route is shown


Map Options




Map Legend


Flown Route
Filed Route
Departure Airport
Arrival Airport
Navaid (VOR, NDB)
Fix

Horizontal Profiles

Position Reports

Time Latitude Longitude Heading Altitude Ground
Speed
12-May-18 17:30 33.436861 -112.002489 90 1142ft 0kts
12-May-18 17:31 33.436861 -112.002489 90 1142ft 0kts
12-May-18 17:32 33.436861 -112.002489 90 1142ft 0kts
12-May-18 17:33 33.436861 -112.002489 90 1142ft 0kts
12-May-18 17:34 33.436861 -112.002489 90 1142ft 0kts
12-May-18 17:35 33.436861 -112.002489 90 1142ft 0kts
12-May-18 17:36 33.436861 -112.002489 90 1143ft 0kts
12-May-18 17:37 33.436861 -112.002489 90 1143ft 0kts
12-May-18 17:38 33.436861 -112.002489 90 1143ft 0kts
12-May-18 17:39 33.436861 -112.002489 90 1143ft 0kts
12-May-18 17:40 33.436861 -112.002489 90 1143ft 0kts
12-May-18 17:41 33.436861 -112.002489 90 1143ft 0kts
12-May-18 17:42 33.436861 -112.002489 90 1143ft 0kts
12-May-18 17:43 33.436861 -112.002489 90 1143ft 0kts
12-May-18 17:44 33.436861 -112.002489 90 1143ft 0kts
12-May-18 17:45 33.436861 -112.002489 90 1143ft 0kts
12-May-18 17:46 33.436861 -112.002489 90 1143ft 0kts
12-May-18 17:47 33.436861 -112.002489 90 1143ft 0kts
12-May-18 17:48 33.436861 -112.002489 90 1143ft 0kts
12-May-18 17:49 33.436861 -112.002489 90 1143ft 0kts
12-May-18 17:50 33.436861 -112.002489 90 1143ft 0kts
12-May-18 17:51 33.436861 -112.002489 90 1143ft 0kts
12-May-18 17:52 33.436861 -112.002489 90 1143ft 0kts
12-May-18 17:53 33.436861 -112.002489 90 1143ft 0kts
12-May-18 17:54 33.436861 -112.002489 90 1143ft 0kts
12-May-18 17:55 33.436861 -112.002489 90 1143ft 0kts
12-May-18 17:56 33.436861 -112.002489 90 1143ft 0kts
12-May-18 17:57 33.436861 -112.002489 90 1143ft 0kts
12-May-18 17:58 33.436861 -112.002489 90 1143ft 0kts
12-May-18 17:59 33.436861 -112.002489 90 1143ft 0kts
12-May-18 18:00 33.436861 -112.002489 90 1143ft 0kts
12-May-18 18:01 33.436861 -112.002489 90 1143ft 0kts
12-May-18 18:02 33.436861 -112.002615 90 1143ft 2kts
12-May-18 18:03 33.436864 -112.003106 90 1143ft 0kts
12-May-18 18:04 33.436864 -112.003105 90 1143ft 0kts
12-May-18 18:05 33.436864 -112.003104 90 1143ft 0kts
12-May-18 18:06 33.436864 -112.003101 90 1143ft 0kts
12-May-18 18:07 33.438340 -112.003020 358 1143ft 0kts
12-May-18 18:08 33.439010 -111.999647 90 1143ft 22kts
12-May-18 18:09 33.438986 -111.993376 89 1143ft 16kts
12-May-18 18:10 33.439671 -111.992409 2 1143ft 0kts
12-May-18 18:11 33.440670 -111.992377 349 1143ft 1kts
12-May-18 18:12 33.440789 -112.016255 268 1536ft 146kts
12-May-18 18:13 33.441412 -112.075987 267 3526ft 216kts
12-May-18 18:14 33.442789 -112.153355 267 5997ft 262kts
12-May-18 18:15 33.444537 -112.244072 268 8991ft 281kts
12-May-18 18:16 33.446314 -112.340414 266 11486ft 316kts
12-May-18 18:17 33.448000 -112.451543 266 14157ft 339kts
12-May-18 18:18 33.449640 -112.565661 265 17218ft 347kts
12-May-18 18:19 33.451314 -112.682987 265 19787ft 359kts
12-May-18 18:20 33.457848 -112.804633 279 20844ft 375kts
12-May-18 18:21 33.495524 -112.922021 286 20845ft 379kts
12-May-18 18:22 33.536244 -113.039057 286 21055ft 384kts
12-May-18 18:23 33.577390 -113.157733 286 23315ft 391kts
12-May-18 18:24 33.619643 -113.278790 286 25522ft 391kts
12-May-18 18:25 33.661386 -113.399283 286 27367ft 391kts
12-May-18 18:26 33.702706 -113.518587 286 27836ft 384kts
12-May-18 18:27 33.743206 -113.636812 285 27849ft 383kts
12-May-18 18:28 33.783580 -113.755362 285 27843ft 382kts
12-May-18 18:29 33.823925 -113.873385 285 27842ft 381kts
12-May-18 18:30 33.863919 -113.991372 285 27830ft 381kts
12-May-18 18:31 33.903157 -114.110104 280 27825ft 378kts
12-May-18 18:32 33.925406 -114.232349 275 27823ft 375kts
12-May-18 18:33 33.945980 -114.355201 275 27820ft 373kts
12-May-18 18:34 33.966404 -114.477652 275 27810ft 373kts
12-May-18 18:35 33.987061 -114.600072 275 27810ft 373kts
12-May-18 18:36 34.004387 -114.702369 275 27817ft 371kts
12-May-18 18:37 34.024407 -114.823549 275 27818ft 368kts
12-May-18 18:38 34.044099 -114.944343 275 27821ft 366kts
12-May-18 18:39 34.063755 -115.065131 275 27824ft 366kts
12-May-18 18:40 34.083147 -115.185134 275 27830ft 364kts
12-May-18 18:41 34.102364 -115.304828 275 27837ft 363kts
12-May-18 18:42 34.121987 -115.424615 275 27846ft 362kts
12-May-18 18:43 34.140912 -115.543770 275 27856ft 361kts
12-May-18 18:44 34.159209 -115.663203 271 27867ft 359kts
12-May-18 18:45 34.154888 -115.781832 260 27879ft 353kts
12-May-18 18:46 34.143622 -115.899380 260 27890ft 352kts
12-May-18 18:47 34.132182 -116.016980 260 27901ft 352kts
12-May-18 18:48 34.120719 -116.134064 260 27907ft 352kts
12-May-18 18:49 34.108978 -116.251453 260 27910ft 352kts
12-May-18 18:50 34.096767 -116.370024 260 27910ft 365kts
12-May-18 18:51 34.083577 -116.492470 260 27915ft 369kts
12-May-18 18:52 34.070785 -116.613696 261 26092ft 358kts
12-May-18 18:53 34.060003 -116.731250 261 24048ft 348kts
12-May-18 18:54 34.049228 -116.845300 262 22153ft 337kts
12-May-18 18:55 34.036395 -116.956393 261 20125ft 332kts
12-May-18 18:56 34.022668 -117.064679 262 18475ft 318kts
12-May-18 18:57 34.010303 -117.169199 262 16730ft 313kts
12-May-18 18:58 33.997899 -117.272860 262 15019ft 310kts
12-May-18 18:59 33.985656 -117.376638 262 13341ft 321kts
12-May-18 19:00 33.973564 -117.484243 268 11995ft 320kts
12-May-18 19:01 33.989626 -117.586249 281 10975ft 300kts
12-May-18 19:02 34.006027 -117.682007 275 10035ft 283kts
12-May-18 19:03 33.997868 -117.775232 262 9025ft 274kts
12-May-18 19:04 33.989080 -117.865380 263 7685ft 266kts
12-May-18 19:05 33.981168 -117.952674 263 6369ft 256kts
12-May-18 19:06 33.972764 -118.036528 262 5427ft 248kts
12-May-18 19:07 33.964411 -118.118377 262 4374ft 244kts
12-May-18 19:08 33.956476 -118.195965 261 3136ft 223kts
12-May-18 19:09 33.949349 -118.265575 262 2032ft 192kts
12-May-18 19:10 33.943495 -118.322863 262 1119ft 153kts
12-May-18 19:11 33.938615 -118.370343 262 361ft 135kts
12-May-18 19:12 33.935342 -118.403499 267 134ft 26kts
12-May-18 19:13 33.935870 -118.408252 271 134ft 10kts
12-May-18 19:14 33.938668 -118.408914 75 134ft 8kts
12-May-18 19:15 33.939219 -118.403758 79 134ft 0kts
12-May-18 19:16 33.939848 -118.405583 352 134ft 12kts
12-May-18 19:17 33.940611 -118.405057 82 134ft 0kts
12-May-18 19:18 33.940611 -118.405057 82 134ft 0kts
12-May-18 19:19 33.940611 -118.405057 82 134ft 0kts
12-May-18 19:20 33.940611 -118.405057 82 134ft 0kts
12-May-18 19:21 33.940611 -118.405057 82 134ft 0kts
12-May-18 19:22 33.940611 -118.405057 82 134ft 0kts
12-May-18 19:23 33.940611 -118.405057 82 134ft 0kts

Navigation Log

Ident Type
Flight plan parsing failed, navigation log unavailable